Time;durP1;ratioP1;P1;durP2;ratioP2;P2;SDS_P1;SDS_P2;PMS_P1;PMS_P2;Temp;Humidity;BMP_temperature;BMP_pressure;BME280_temperature;BME280_humidity;BME280_pressure;Samples;Min_cycle;Max_cycle;Signal;HPM_P1;HPM_P2
2022/07/18 00:01:33;;;;;;;0.10;0.10;;;;;;;;;;5071374;28;20039;-80
2022/07/18 00:03:59;;;;;;;0.10;0.10;;;;;;;;;;5071518;28;20033;-80
2022/07/18 00:06:26;;;;;;;0.10;0.10;;;;;;;;;;5071415;28;20449;-80
2022/07/18 00:08:52;;;;;;;0.10;0.10;;;;;;;;;;5071315;28;20040;-80
2022/07/18 00:11:19;;;;;;;0.10;0.10;;;;;;;;;;5071156;28;20028;-80
2022/07/18 00:13:45;;;;;;;0.10;0.10;;;;;;;;;;5070171;28;20059;-80
2022/07/18 00:16:11;;;;;;;0.10;0.10;;;;;;;;;;5071378;28;20020;-80
2022/07/18 00:18:37;;;;;;;0.10;0.10;;;;;;;;;;5071675;28;20027;-80
2022/07/18 00:21:03;;;;;;;0.10;0.10;;;;;;;;;;5071189;28;20021;-80
2022/07/18 00:23:29;;;;;;;0.10;0.10;;;;;;;;;;5071239;28;20520;-80
2022/07/18 00:25:55;;;;;;;0.10;0.10;;;;;;;;;;5071084;28;20095;-80
2022/07/18 00:28:21;;;;;;;0.10;0.10;;;;;;;;;;5069795;28;20036;-80
2022/07/18 00:30:47;;;;;;;0.10;0.10;;;;;;;;;;5071372;28;20029;-80
2022/07/18 00:33:13;;;;;;;0.10;0.10;;;;;;;;;;5069745;28;20480;-80
2022/07/18 00:35:39;;;;;;;0.10;0.10;;;;;;;;;;5071485;28;20025;-80
2022/07/18 00:38:05;;;;;;;0.03;0.03;;;;;;;;;;5071617;28;20021;-80
2022/07/18 00:40:31;;;;;;;0.10;0.10;;;;;;;;;;5070827;28;20115;-80
2022/07/18 00:42:57;;;;;;;0.10;0.10;;;;;;;;;;5071146;28;20024;-80
2022/07/18 00:45:23;;;;;;;0.10;0.10;;;;;;;;;;5071200;28;20024;-80
2022/07/18 00:47:52;;;;;;;0.10;0.10;;;;;;;;;;5071195;28;20033;-80
2022/07/18 00:50:22;;;;;;;0.10;0.10;;;;;;;;;;5070736;28;20492;-80
2022/07/18 00:52:48;;;;;;;0.10;0.10;;;;;;;;;;5070879;28;20035;-79
2022/07/18 00:55:14;;;;;;;0.10;0.10;;;;;;;;;;5071093;28;20435;-80
2022/07/18 00:57:41;;;;;;;0.10;0.10;;;;;;;;;;5075180;28;20021;-80
2022/07/18 01:02:54;;;;;;;0.10;0.10;;;;;;;;;;5075323;28;20114;-80
2022/07/18 01:05:20;;;;;;;0.10;0.10;;;;;;;;;;5074923;28;20464;-80
2022/07/18 01:07:46;;;;;;;0.10;0.10;;;;;;;;;;5074912;28;20029;-79
2022/07/18 01:10:12;;;;;;;0.20;0.20;;;;;;;;;;5073308;28;20530;-80
2022/07/18 01:12:38;;;;;;;0.10;0.10;;;;;;;;;;5075127;28;20090;-81
2022/07/18 01:15:05;;;;;;;0.10;0.10;;;;;;;;;;5075236;28;20024;-81
2022/07/18 01:17:31;;;;;;;0.10;0.10;;;;;;;;;;5074475;28;20032;-81
2022/07/18 01:19:57;;;;;;;0.10;0.10;;;;;;;;;;5074872;28;20383;-81
2022/07/18 01:22:23;;;;;;;0.10;0.10;;;;;;;;;;5074533;28;20114;-80
2022/07/18 01:24:49;;;;;;;0.10;0.10;;;;;;;;;;5074518;28;20028;-80
2022/07/18 01:27:16;;;;;;;0.10;0.10;;;;;;;;;;5074250;28;20400;-80
2022/07/18 01:29:43;;;;;;;0.10;0.10;;;;;;;;;;5073247;28;20025;-80
2022/07/18 01:32:09;;;;;;;0.10;0.10;;;;;;;;;;5074312;28;20538;-80
2022/07/18 01:34:36;;;;;;;0.10;0.10;;;;;;;;;;5073470;28;20449;-80
2022/07/18 01:37:02;;;;;;;0.10;0.10;;;;;;;;;;5074465;28;20016;-80
2022/07/18 01:39:28;;;;;;;0.10;0.10;;;;;;;;;;5074025;28;20033;-80
2022/07/18 01:42:13;;;;;;;0.10;0.10;;;;;;;;;;5074282;28;20029;-80
2022/07/18 01:44:39;;;;;;;0.10;0.10;;;;;;;;;;5074179;28;20043;-81
2022/07/18 01:47:08;;;;;;;0.10;0.10;;;;;;;;;;5074546;28;20021;-81
2022/07/18 01:49:35;;;;;;;0.10;0.10;;;;;;;;;;5074424;28;20029;-80
2022/07/18 01:52:01;;;;;;;0.10;0.10;;;;;;;;;;5074208;28;20092;-80
2022/07/18 01:54:28;;;;;;;14.18;12.90;;;;;;;;;;5073893;28;20063;-80
2022/07/18 01:56:54;;;;;;;0.10;0.10;;;;;;;;;;5072678;28;20020;-80
2022/07/18 01:59:21;;;;;;;0.10;0.10;;;;;;;;;;5073784;28;20032;-80
2022/07/18 02:01:47;;;;;;;0.10;0.10;;;;;;;;;;5073822;28;20020;-81
2022/07/18 02:04:13;;;;;;;0.00;0.00;;;;;;;;;;5073791;28;20029;-81
2022/07/18 02:06:39;;;;;;;0.10;0.10;;;;;;;;;;5073234;28;20384;-81
2022/07/18 02:09:06;;;;;;;0.10;0.10;;;;;;;;;;5073802;28;20036;-81
2022/07/18 02:11:32;;;;;;;0.15;0.15;;;;;;;;;;5073427;28;20031;-81
2022/07/18 02:13:58;;;;;;;0.10;0.10;;;;;;;;;;5073785;28;20032;-80
2022/07/18 02:16:24;;;;;;;0.10;0.10;;;;;;;;;;5073199;28;20481;-79
2022/07/18 02:18:50;;;;;;;0.10;0.10;;;;;;;;;;5073612;28;20028;-79
2022/07/18 02:21:16;;;;;;;0.10;0.10;;;;;;;;;;5073299;28;20024;-79
2022/07/18 02:23:42;;;;;;;0.10;0.10;;;;;;;;;;5073570;28;20108;-79
2022/07/18 02:26:09;;;;;;;0.10;0.10;;;;;;;;;;5073419;28;20025;-80
2022/07/18 02:28:35;;;;;;;0.10;0.10;;;;;;;;;;5073799;28;20093;-80
2022/07/18 02:31:01;;;;;;;0.10;0.10;;;;;;;;;;5073428;28;20099;-80
2022/07/18 02:33:27;;;;;;;0.10;0.10;;;;;;;;;;5073117;28;20085;-80
2022/07/18 02:35:53;;;;;;;0.10;0.10;;;;;;;;;;5073396;28;20091;-80
2022/07/18 02:38:19;;;;;;;0.10;0.10;;;;;;;;;;5073203;28;20024;-80
2022/07/18 02:40:45;;;;;;;0.10;0.10;;;;;;;;;;5073269;28;20129;-80
2022/07/18 02:43:11;;;;;;;0.10;0.10;;;;;;;;;;5072743;28;20024;-80
2022/07/18 02:45:37;;;;;;;0.10;0.10;;;;;;;;;;5073110;28;20078;-80
2022/07/18 02:48:03;;;;;;;0.10;0.10;;;;;;;;;;5073142;28;20033;-80
2022/07/18 02:50:29;;;;;;;0.10;0.10;;;;;;;;;;5071687;28;20371;-80
2022/07/18 02:52:56;;;;;;;0.20;0.20;;;;;;;;;;5073075;28;20048;-80
2022/07/18 02:55:22;;;;;;;0.10;0.10;;;;;;;;;;5072719;28;20032;-80
2022/07/18 02:57:49;;;;;;;0.08;0.08;;;;;;;;;;5072934;28;20025;-81
2022/07/18 03:00:16;;;;;;;0.10;0.10;;;;;;;;;;5072291;28;20086;-80
2022/07/18 03:02:42;;;;;;;0.10;0.10;;;;;;;;;;5072969;28;20021;-81
2022/07/18 03:05:09;;;;;;;0.10;0.10;;;;;;;;;;5073074;28;20408;-81
2022/07/18 03:07:35;;;;;;;0.10;0.10;;;;;;;;;;5073074;28;20054;-81
2022/07/18 03:10:01;;;;;;;0.10;0.10;;;;;;;;;;5072789;28;20373;-81
2022/07/18 03:12:27;;;;;;;0.10;0.10;;;;;;;;;;5072442;28;20472;-80
2022/07/18 03:14:53;;;;;;;0.10;0.10;;;;;;;;;;5072533;28;20025;-80
2022/07/18 03:17:19;;;;;;;0.10;0.10;;;;;;;;;;5072353;28;20027;-79
2022/07/18 03:19:45;;;;;;;0.10;0.10;;;;;;;;;;5072362;28;20103;-80
2022/07/18 03:22:11;;;;;;;0.05;0.05;;;;;;;;;;5072073;28;20025;-79
2022/07/18 03:24:37;;;;;;;0.10;0.10;;;;;;;;;;5072493;28;20032;-80
2022/07/18 03:27:03;;;;;;;0.10;0.10;;;;;;;;;;5072151;28;20447;-79
2022/07/18 03:29:29;;;;;;;0.10;0.10;;;;;;;;;;5072070;28;20910;-79
2022/07/18 03:31:55;;;;;;;0.10;0.10;;;;;;;;;;5071070;28;20032;-80
2022/07/18 03:34:21;;;;;;;0.10;0.10;;;;;;;;;;5070851;28;20074;-80
2022/07/18 03:36:47;;;;;;;0.10;0.10;;;;;;;;;;5072220;28;20035;-80
2022/07/18 03:39:13;;;;;;;0.10;0.10;;;;;;;;;;5071972;28;20074;-80
2022/07/18 03:41:39;;;;;;;0.10;0.10;;;;;;;;;;5070404;28;20563;-80
2022/07/18 03:44:06;;;;;;;0.10;0.10;;;;;;;;;;5072344;28;20392;-79
2022/07/18 03:46:32;;;;;;;0.10;0.10;;;;;;;;;;5071633;28;20481;-80
2022/07/18 03:48:58;;;;;;;0.10;0.10;;;;;;;;;;5071590;28;20047;-80
2022/07/18 03:51:24;;;;;;;0.10;0.10;;;;;;;;;;5071443;28;20029;-80
2022/07/18 03:53:51;;;;;;;0.15;0.15;;;;;;;;;;5071904;28;20099;-80
2022/07/18 03:56:17;;;;;;;0.10;0.10;;;;;;;;;;5071607;28;20016;-80
2022/07/18 03:58:43;;;;;;;0.10;0.10;;;;;;;;;;5071977;28;20027;-80
2022/07/18 04:01:10;;;;;;;0.10;0.10;;;;;;;;;;5071567;28;20029;-79
2022/07/18 04:03:36;;;;;;;0.10;0.10;;;;;;;;;;5072167;28;20030;-80
2022/07/18 04:06:02;;;;;;;0.10;0.10;;;;;;;;;;5071606;28;20077;-79
2022/07/18 04:08:28;;;;;;;0.10;0.10;;;;;;;;;;5071392;28;20036;-78
2022/07/18 04:10:54;;;;;;;0.10;0.10;;;;;;;;;;5071786;28;20056;-80
2022/07/18 04:13:20;;;;;;;0.10;0.10;;;;;;;;;;5071339;28;20040;-80
2022/07/18 04:15:46;;;;;;;0.10;0.10;;;;;;;;;;5071657;28;20020;-80
2022/07/18 04:18:12;;;;;;;0.20;0.20;;;;;;;;;;5071318;28;20040;-80
2022/07/18 04:20:38;;;;;;;0.10;0.10;;;;;;;;;;5071498;28;20023;-80
2022/07/18 04:23:05;;;;;;;0.10;0.10;;;;;;;;;;5070607;28;20098;-80
2022/07/18 04:25:39;;;;;;;0.10;0.10;;;;;;;;;;5070739;28;20126;-80
2022/07/18 04:28:06;;;;;;;0.10;0.10;;;;;;;;;;5070113;28;20047;-80
2022/07/18 04:30:32;;;;;;;0.20;0.20;;;;;;;;;;5070447;28;20055;-79
2022/07/18 04:32:58;;;;;;;0.10;0.10;;;;;;;;;;5071183;28;20441;-80
2022/07/18 04:35:24;;;;;;;0.10;0.10;;;;;;;;;;5071064;28;20047;-79
2022/07/18 04:37:50;;;;;;;0.10;0.10;;;;;;;;;;5070885;28;20035;-80
2022/07/18 04:40:17;;;;;;;0.10;0.10;;;;;;;;;;5070571;28;20179;-80
2022/07/18 04:42:43;;;;;;;0.20;0.20;;;;;;;;;;5071178;28;20039;-80
2022/07/18 04:45:10;;;;;;;0.10;0.10;;;;;;;;;;5071122;28;20098;-80
2022/07/18 04:47:36;;;;;;;0.10;0.10;;;;;;;;;;5071483;28;20159;-80
2022/07/18 04:50:02;;;;;;;0.10;0.10;;;;;;;;;;5071278;28;20017;-80
2022/07/18 04:52:35;;;;;;;0.10;0.10;;;;;;;;;;5070601;28;20039;-79
2022/07/18 04:55:01;;;;;;;0.10;0.10;;;;;;;;;;5071052;28;20048;-79
2022/07/18 04:57:27;;;;;;;0.10;0.10;;;;;;;;;;5069644;28;20060;-80
2022/07/18 04:59:53;;;;;;;0.10;0.10;;;;;;;;;;5070972;28;20473;-80
2022/07/18 05:02:19;;;;;;;0.10;0.10;;;;;;;;;;5071242;28;20078;-79
2022/07/18 05:04:45;;;;;;;0.10;0.10;;;;;;;;;;5076984;28;20508;-79
2022/07/18 05:07:11;;;;;;;0.10;0.10;;;;;;;;;;5078163;28;20044;-79
2022/07/18 05:09:37;;;;;;;0.10;0.10;;;;;;;;;;5077820;28;20032;-79
2022/07/18 05:12:03;;;;;;;0.10;0.10;;;;;;;;;;5072358;28;20029;-79
2022/07/18 05:14:29;;;;;;;0.17;0.17;;;;;;;;;;5073801;28;20063;-81
2022/07/18 05:16:55;;;;;;;0.10;0.10;;;;;;;;;;5077054;28;20054;-79
2022/07/18 05:19:21;;;;;;;0.10;0.10;;;;;;;;;;5075890;28;20508;-79
2022/07/18 05:21:47;;;;;;;0.10;0.10;;;;;;;;;;5071752;28;20024;-79
2022/07/18 05:24:13;;;;;;;0.10;0.10;;;;;;;;;;5072963;28;20107;-79
2022/07/18 05:26:39;;;;;;;0.10;0.10;;;;;;;;;;5074386;28;20119;-79
2022/07/18 05:29:05;;;;;;;0.10;0.10;;;;;;;;;;5078314;28;20040;-79
2022/07/18 05:31:31;;;;;;;0.10;0.10;;;;;;;;;;5071905;28;20028;-79
2022/07/18 05:33:57;;;;;;;0.10;0.10;;;;;;;;;;5078747;28;20381;-80
2022/07/18 05:36:23;;;;;;;0.10;0.10;;;;;;;;;;5078788;28;20043;-78
2022/07/18 05:38:49;;;;;;;0.20;0.20;;;;;;;;;;5072192;28;20725;-78
2022/07/18 05:41:15;;;;;;;0.10;0.10;;;;;;;;;;5070239;28;20077;-81
2022/07/18 05:43:41;;;;;;;0.10;0.10;;;;;;;;;;5081643;28;20024;-79
2022/07/18 05:46:08;;;;;;;0.10;0.10;;;;;;;;;;5081515;28;20085;-80
2022/07/18 05:48:34;;;;;;;0.10;0.10;;;;;;;;;;5094372;28;20032;-79
2022/07/18 05:51:00;;;;;;;0.10;0.10;;;;;;;;;;5094480;28;20048;-78
2022/07/18 05:53:26;;;;;;;0.10;0.10;;;;;;;;;;5088409;28;20029;-79
2022/07/18 05:55:52;;;;;;;0.10;0.10;;;;;;;;;;5074008;28;20020;-79
2022/07/18 05:58:18;;;;;;;0.10;0.10;;;;;;;;;;5073909;28;20032;-79
2022/07/18 06:00:44;;;;;;;0.10;0.10;;;;;;;;;;5073401;28;20021;-79
2022/07/18 06:03:11;;;;;;;0.20;0.20;;;;;;;;;;5075493;28;20480;-80
2022/07/18 06:05:37;;;;;;;0.10;0.10;;;;;;;;;;5094411;28;20016;-80
2022/07/18 06:08:03;;;;;;;0.10;0.10;;;;;;;;;;5093871;28;20040;-79
2022/07/18 06:10:29;;;;;;;0.10;0.10;;;;;;;;;;5093815;28;20056;-80
2022/07/18 06:12:55;;;;;;;0.10;0.10;;;;;;;;;;5088043;28;20028;-79
2022/07/18 06:15:21;;;;;;;0.10;0.10;;;;;;;;;;5093836;28;20020;-79
2022/07/18 06:17:47;;;;;;;0.10;0.10;;;;;;;;;;5094010;28;20031;-79
2022/07/18 06:20:13;;;;;;;0.10;0.10;;;;;;;;;;5093710;28;20028;-80
2022/07/18 06:22:39;;;;;;;0.10;0.10;;;;;;;;;;5093960;28;20516;-80
2022/07/18 06:25:06;;;;;;;0.20;0.20;;;;;;;;;;5088168;28;20051;-80
2022/07/18 06:27:32;;;;;;;0.10;0.10;;;;;;;;;;5091955;28;20385;-80
2022/07/18 06:29:59;;;;;;;0.10;0.10;;;;;;;;;;5093740;28;20088;-80
2022/07/18 06:32:25;;;;;;;0.10;0.10;;;;;;;;;;5086379;28;20054;-81
2022/07/18 06:34:51;;;;;;;0.10;0.10;;;;;;;;;;5073645;28;20472;-80
2022/07/18 06:37:17;;;;;;;0.10;0.10;;;;;;;;;;5072981;28;20583;-81
2022/07/18 06:39:43;;;;;;;0.10;0.10;;;;;;;;;;5073263;28;20107;-81
2022/07/18 06:42:09;;;;;;;0.10;0.10;;;;;;;;;;5073344;28;20073;-81
2022/07/18 06:44:35;;;;;;;0.10;0.10;;;;;;;;;;5079503;28;20027;-81
2022/07/18 06:47:01;;;;;;;0.10;0.10;;;;;;;;;;5093409;28;20028;-80
2022/07/18 06:49:27;;;;;;;0.10;0.10;;;;;;;;;;5092973;28;20062;-82
2022/07/18 06:51:53;;;;;;;0.10;0.10;;;;;;;;;;5091965;28;20364;-81
2022/07/18 06:54:20;;;;;;;0.17;0.17;;;;;;;;;;5092538;28;20035;-80
2022/07/18 06:56:46;;;;;;;0.10;0.10;;;;;;;;;;5093313;28;20028;-80
2022/07/18 06:59:12;;;;;;;0.10;0.10;;;;;;;;;;5093050;28;20495;-79
2022/07/18 07:01:38;;;;;;;0.10;0.10;;;;;;;;;;5093903;28;20032;-81
2022/07/18 07:04:04;;;;;;;0.10;0.10;;;;;;;;;;5093362;28;20024;-80
2022/07/18 07:06:30;;;;;;;0.10;0.10;;;;;;;;;;5092917;28;20112;-80
2022/07/18 07:08:56;;;;;;;0.10;0.10;;;;;;;;;;5092801;28;20077;-82
2022/07/18 07:11:22;;;;;;;0.10;0.10;;;;;;;;;;5092782;28;20020;-80
2022/07/18 07:13:48;;;;;;;0.10;0.10;;;;;;;;;;5090709;28;20472;-80
2022/07/18 07:16:14;;;;;;;0.10;0.10;;;;;;;;;;5083461;28;20369;-80
2022/07/18 07:18:40;;;;;;;0.10;0.10;;;;;;;;;;5088893;28;20032;-82
2022/07/18 07:21:08;;;;;;;0.10;0.10;;;;;;;;;;5076480;28;20103;-81
2022/07/18 07:23:34;;;;;;;0.10;0.10;;;;;;;;;;5073029;28;20480;-81
2022/07/18 07:26:00;;;;;;;0.10;0.10;;;;;;;;;;5074807;28;20038;-82
2022/07/18 07:28:26;;;;;;;0.10;0.10;;;;;;;;;;5073875;28;20036;-82
2022/07/18 07:30:52;;;;;;;0.10;0.10;;;;;;;;;;5073712;28;20437;-82
2022/07/18 07:33:18;;;;;;;0.10;0.10;;;;;;;;;;5073334;28;20042;-83
2022/07/18 07:35:44;;;;;;;0.10;0.10;;;;;;;;;;5070924;28;20027;-83
2022/07/18 07:38:17;;;;;;;0.10;0.10;;;;;;;;;;5070656;28;20028;-82
2022/07/18 07:40:43;;;;;;;0.10;0.10;;;;;;;;;;5070648;28;20036;-83
2022/07/18 07:43:11;;;;;;;0.10;0.10;;;;;;;;;;5071542;28;20025;-82
2022/07/18 07:45:37;;;;;;;0.10;0.10;;;;;;;;;;5071206;28;20043;-82
2022/07/18 07:48:03;;;;;;;0.10;0.10;;;;;;;;;;5071659;28;20040;-82
2022/07/18 07:50:29;;;;;;;0.10;0.10;;;;;;;;;;5073325;28;20028;-81
2022/07/18 07:52:55;;;;;;;0.10;0.10;;;;;;;;;;5071502;28;20029;-82
2022/07/18 07:55:21;;;;;;;0.13;0.13;;;;;;;;;;5071805;28;20492;-82
2022/07/18 07:57:47;;;;;;;0.10;0.10;;;;;;;;;;5071632;28;20069;-80
2022/07/18 08:00:13;;;;;;;0.10;0.10;;;;;;;;;;5071539;28;20043;-81
2022/07/18 08:02:53;;;;;;;0.00;0.00;;;;;;;;;;5071606;28;20028;-81
2022/07/18 08:05:19;;;;;;;0.20;0.20;;;;;;;;;;5070390;28;20029;-81
2022/07/18 08:07:45;;;;;;;0.10;0.10;;;;;;;;;;5071641;28;20060;-83
2022/07/18 08:10:11;;;;;;;0.10;0.10;;;;;;;;;;5070605;28;20044;-82
2022/07/18 08:12:37;;;;;;;0.10;0.10;;;;;;;;;;5071877;28;20052;-81
2022/07/18 08:15:03;;;;;;;0.10;0.10;;;;;;;;;;5085176;28;20024;-81
2022/07/18 08:17:29;;;;;;;0.10;0.10;;;;;;;;;;5091444;28;20370;-81
2022/07/18 08:19:55;;;;;;;0.10;0.10;;;;;;;;;;5079815;28;20120;-82
2022/07/18 08:22:21;;;;;;;0.10;0.10;;;;;;;;;;5081265;28;20088;-82
2022/07/18 08:24:47;;;;;;;0.10;0.10;;;;;;;;;;5071394;28;20028;-84
2022/07/18 08:27:13;;;;;;;0.10;0.10;;;;;;;;;;5070676;28;20029;-80
2022/07/18 08:29:39;;;;;;;0.10;0.10;;;;;;;;;;5071275;28;20044;-82
2022/07/18 08:32:05;;;;;;;0.10;0.10;;;;;;;;;;5071726;28;20024;-81
2022/07/18 08:34:32;;;;;;;0.10;0.10;;;;;;;;;;5071215;28;20029;-81
2022/07/18 08:36:58;;;;;;;0.10;0.10;;;;;;;;;;5071146;28;20504;-81
2022/07/18 08:39:24;;;;;;;0.10;0.10;;;;;;;;;;5071108;28;20017;-81
2022/07/18 08:41:51;;;;;;;0.10;0.10;;;;;;;;;;5070638;28;20062;-82
2022/07/18 08:44:17;;;;;;;0.10;0.10;;;;;;;;;;5071052;28;20021;-82
2022/07/18 08:46:49;;;;;;;0.10;0.10;;;;;;;;;;5071316;28;20028;-83
2022/07/18 08:49:15;;;;;;;0.10;0.10;;;;;;;;;;5070874;28;20040;-82
2022/07/18 08:51:42;;;;;;;0.10;0.10;;;;;;;;;;5071179;28;20078;-82
2022/07/18 08:54:09;;;;;;;0.10;0.10;;;;;;;;;;5071267;28;20032;-82
2022/07/18 08:56:35;;;;;;;0.10;0.10;;;;;;;;;;5070987;28;20028;-81
2022/07/18 08:59:04;;;;;;;0.10;0.10;;;;;;;;;;5069956;28;20039;-80
2022/07/18 09:01:30;;;;;;;0.10;0.10;;;;;;;;;;5069792;28;20025;-83
2022/07/18 09:04:14;;;;;;;0.10;0.10;;;;;;;;;;5070718;28;20376;-80
2022/07/18 09:06:43;;;;;;;0.10;0.10;;;;;;;;;;5070887;28;20114;-81
2022/07/18 09:09:11;;;;;;;0.10;0.10;;;;;;;;;;5083192;28;20036;-81
2022/07/18 09:11:37;;;;;;;0.10;0.10;;;;;;;;;;5074823;28;20028;-80
2022/07/18 09:14:03;;;;;;;0.10;0.10;;;;;;;;;;5070779;28;20037;-81
2022/07/18 09:16:29;;;;;;;0.10;0.10;;;;;;;;;;5071744;28;20956;-80
2022/07/18 09:18:55;;;;;;;0.10;0.10;;;;;;;;;;5073689;28;20016;-81
2022/07/18 09:21:22;;;;;;;0.10;0.10;;;;;;;;;;5071977;28;20031;-81
2022/07/18 09:23:49;;;;;;;0.20;0.20;;;;;;;;;;5069350;28;20028;-81
2022/07/18 09:26:35;;;;;;;0.10;0.10;;;;;;;;;;5072847;28;20032;-80
2022/07/18 09:29:01;;;;;;;;;;;;;;;;;;5080213;28;20043;-80
2022/07/18 09:31:27;;;;;;;0.10;0.10;;;;;;;;;;5074543;28;19995;-80
2022/07/18 09:33:57;;;;;;;0.20;0.20;;;;;;;;;;5073738;28;20028;-81
2022/07/18 09:36:23;;;;;;;0.20;0.20;;;;;;;;;;5087516;28;20059;-81
2022/07/18 09:38:50;;;;;;;0.10;0.10;;;;;;;;;;5075032;28;20032;-82
2022/07/18 09:41:16;;;;;;;0.10;0.10;;;;;;;;;;5074103;28;20384;-82
2022/07/18 09:43:42;;;;;;;0.10;0.10;;;;;;;;;;5073267;28;20111;-82
2022/07/18 09:46:08;;;;;;;0.10;0.10;;;;;;;;;;5073889;28;20100;-82
2022/07/18 09:48:35;;;;;;;0.10;0.10;;;;;;;;;;5073334;28;20042;-81
2022/07/18 09:51:03;;;;;;;0.17;0.17;;;;;;;;;;5080919;28;20066;-82
2022/07/18 09:53:32;;;;;;;0.10;0.10;;;;;;;;;;5073588;28;20547;-82
2022/07/18 09:55:59;;;;;;;0.10;0.10;;;;;;;;;;5091622;28;20499;-82
2022/07/18 09:58:29;;;;;;;0.10;0.10;;;;;;;;;;5080810;28;20025;-82
2022/07/18 10:00:57;;;;;;;0.10;0.10;;;;;;;;;;5077379;28;20056;-84
2022/07/18 10:03:24;;;;;;;0.10;0.10;;;;;;;;;;5074715;28;20025;-82
2022/07/18 10:05:51;;;;;;;0.10;0.10;;;;;;;;;;5073407;28;20032;-82
2022/07/18 10:08:18;;;;;;;0.10;0.10;;;;;;;;;;5072560;28;20052;-82
2022/07/18 10:10:45;;;;;;;0.10;0.10;;;;;;;;;;5071499;28;20060;-83
2022/07/18 10:13:12;;;;;;;0.10;0.10;;;;;;;;;;5084127;28;20030;-82
2022/07/18 10:15:41;;;;;;;0.10;0.10;;;;;;;;;;5077988;28;20031;-82
2022/07/18 10:18:08;;;;;;;0.10;0.10;;;;;;;;;;5074752;28;20506;-83
2022/07/18 10:20:37;;;;;;;0.10;0.10;;;;;;;;;;5076939;28;20028;-83
2022/07/18 10:23:08;;;;;;;0.20;0.20;;;;;;;;;;5093966;28;20472;-83
2022/07/18 10:25:35;;;;;;;0.10;0.10;;;;;;;;;;5080745;28;20040;-85
2022/07/18 10:28:01;;;;;;;0.10;0.10;;;;;;;;;;5072710;28;20037;-86
2022/07/18 10:30:35;;;;;;;0.10;0.10;;;;;;;;;;5072760;28;20029;-85
2022/07/18 10:33:01;;;;;;;0.10;0.10;;;;;;;;;;5069153;28;20024;-84
2022/07/18 10:35:46;;;;;;;0.10;0.10;;;;;;;;;;5072806;28;20030;-86
2022/07/18 10:38:21;;;;;;;0.10;0.10;;;;;;;;;;5074205;28;20035;-85
2022/07/18 10:41:05;;;;;;;0.10;0.10;;;;;;;;;;5072982;28;20443;-85
2022/07/18 10:43:32;;;;;;;0.10;0.10;;;;;;;;;;5073094;28;20099;-86
2022/07/18 10:45:59;;;;;;;0.10;0.10;;;;;;;;;;5073334;28;20029;-88
2022/07/18 10:48:35;;;;;;;0.10;0.10;;;;;;;;;;5073711;28;20037;-89
2022/07/18 10:51:08;;;;;;;0.10;0.10;;;;;;;;;;5067083;28;20032;-82
2022/07/18 10:53:52;;;;;;;0.10;0.10;;;;;;;;;;5066166;28;20074;-83
2022/07/18 10:56:18;;;;;;;0.10;0.10;;;;;;;;;;5077352;28;20081;-82
2022/07/18 10:58:44;;;;;;;0.10;0.10;;;;;;;;;;5076614;28;20020;-82
2022/07/18 11:01:17;;;;;;;0.10;0.10;;;;;;;;;;5094145;28;20078;-82
2022/07/18 11:03:44;;;;;;;0.10;0.10;;;;;;;;;;5070370;28;20021;-84
2022/07/18 11:06:10;;;;;;;0.10;0.10;;;;;;;;;;5073170;28;20063;-83
2022/07/18 11:08:36;;;;;;;0.20;0.20;;;;;;;;;;5074007;28;20078;-87
2022/07/18 11:11:02;;;;;;;0.10;0.10;;;;;;;;;;5074602;28;20480;-84
2022/07/18 11:13:28;;;;;;;0.10;0.10;;;;;;;;;;5073555;28;20491;-84
2022/07/18 11:15:55;;;;;;;0.10;0.10;;;;;;;;;;5074334;28;20077;-87
2022/07/18 11:18:21;;;;;;;0.10;0.10;;;;;;;;;;5072439;28;20086;-87
2022/07/18 11:20:47;;;;;;;0.10;0.10;;;;;;;;;;5071223;28;20427;-88
2022/07/18 11:23:18;;;;;;;0.10;0.10;;;;;;;;;;5073291;28;20035;-82
2022/07/18 11:25:44;;;;;;;0.10;0.10;;;;;;;;;;5078118;28;20032;-87
2022/07/18 11:28:10;;;;;;;0.10;0.10;;;;;;;;;;5094172;28;20032;-84
2022/07/18 11:30:37;;;;;;;0.10;0.10;;;;;;;;;;5082863;28;20032;-84
2022/07/18 11:33:03;;;;;;;0.10;0.10;;;;;;;;;;5071972;28;20028;-87
2022/07/18 11:35:30;;;;;;;0.10;0.10;;;;;;;;;;5071855;28;20028;-87
2022/07/18 11:37:56;;;;;;;0.10;0.10;;;;;;;;;;5071975;28;20029;-86
2022/07/18 11:40:22;;;;;;;0.10;0.10;;;;;;;;;;5071572;28;20039;-87
2022/07/18 11:42:49;;;;;;;0.20;0.20;;;;;;;;;;5071920;28;20043;-88
2022/07/18 11:45:16;;;;;;;0.00;0.00;;;;;;;;;;5071777;28;20438;-87
2022/07/18 11:47:49;;;;;;;0.10;0.10;;;;;;;;;;5072029;28;20107;-82
2022/07/18 11:50:16;;;;;;;0.10;0.10;;;;;;;;;;5070386;28;20075;-82
2022/07/18 11:52:43;;;;;;;0.10;0.10;;;;;;;;;;5070255;28;20507;-82
2022/07/18 11:55:09;;;;;;;0.10;0.10;;;;;;;;;;5070473;28;20024;-80
2022/07/18 11:57:35;;;;;;;0.10;0.10;;;;;;;;;;5070514;28;20560;-82
2022/07/18 12:00:13;;;;;;;0.10;0.10;;;;;;;;;;5070131;28;20091;-81
2022/07/18 12:02:58;;;;;;;0.10;0.10;;;;;;;;;;5070168;28;20048;-83
2022/07/18 12:05:34;;;;;;;0.17;0.17;;;;;;;;;;5072153;28;20036;-84
2022/07/18 12:08:00;;;;;;;0.10;0.10;;;;;;;;;;5071859;28;20033;-84
2022/07/18 12:10:26;;;;;;;0.10;0.10;;;;;;;;;;5072431;28;20044;-83
2022/07/18 12:12:52;;;;;;;0.15;0.15;;;;;;;;;;5071393;28;20074;-83
2022/07/18 12:15:18;;;;;;;0.10;0.10;;;;;;;;;;5071018;28;20040;-83
2022/07/18 12:17:45;;;;;;;0.10;0.10;;;;;;;;;;5071654;28;20026;-83
2022/07/18 12:20:12;;;;;;;0.10;0.10;;;;;;;;;;5071883;28;20024;-83
2022/07/18 12:22:59;;;;;;;0.10;0.10;;;;;;;;;;5071664;28;20070;-82
2022/07/18 12:25:37;;;;;;;0.10;0.10;;;;;;;;;;5071645;28;20016;-83
2022/07/18 12:28:23;;;;;;;0.10;0.10;;;;;;;;;;5083664;28;20028;-82
2022/07/18 12:30:49;;;;;;;0.10;0.10;;;;;;;;;;5078565;28;20023;-82
2022/07/18 12:33:16;;;;;;;0.10;0.10;;;;;;;;;;5070947;28;20484;-82
2022/07/18 12:35:42;;;;;;;0.10;0.10;;;;;;;;;;5070232;28;20024;-84
2022/07/18 12:38:09;;;;;;;0.10;0.10;;;;;;;;;;5070352;28;20029;-83
2022/07/18 12:41:08;;;;;;;0.10;0.10;;;;;;;;;;5070477;28;20027;-81
2022/07/18 12:43:37;;;;;;;0.10;0.10;;;;;;;;;;5058809;28;20135;-82
2022/07/18 12:46:08;;;;;;;0.10;0.10;;;;;;;;;;5071242;28;20043;-82
2022/07/18 12:48:35;;;;;;;0.10;0.10;;;;;;;;;;5080993;28;20055;-83
2022/07/18 12:51:02;;;;;;;0.10;0.10;;;;;;;;;;5069743;28;20028;-81
2022/07/18 12:53:29;;;;;;;0.10;0.10;;;;;;;;;;5077084;28;20029;-81
2022/07/18 12:55:55;;;;;;;0.10;0.10;;;;;;;;;;5074167;28;20017;-82
2022/07/18 12:58:21;;;;;;;0.15;0.15;;;;;;;;;;5071607;28;20056;-82
2022/07/18 13:00:48;;;;;;;0.10;0.10;;;;;;;;;;5071099;28;20021;-81
2022/07/18 13:03:14;;;;;;;0.10;0.10;;;;;;;;;;5070345;28;20432;-82
2022/07/18 13:05:41;;;;;;;0.10;0.10;;;;;;;;;;5084380;28;20484;-80
2022/07/18 13:08:07;;;;;;;0.10;0.10;;;;;;;;;;5079884;28;20396;-82
2022/07/18 13:10:34;;;;;;;0.10;0.10;;;;;;;;;;5070548;28;20063;-81
2022/07/18 13:13:03;;;;;;;0.10;0.10;;;;;;;;;;5071051;28;20024;-81
2022/07/18 13:15:29;;;;;;;0.10;0.10;;;;;;;;;;5071185;28;20138;-80
2022/07/18 13:17:56;;;;;;;0.10;0.10;;;;;;;;;;5081973;28;20445;-81
2022/07/18 13:20:22;;;;;;;0.10;0.10;;;;;;;;;;5070605;28;20025;-81
2022/07/18 13:22:48;;;;;;;0.10;0.10;;;;;;;;;;5070838;28;20033;-82
2022/07/18 13:25:14;;;;;;;0.10;0.10;;;;;;;;;;5070550;28;20024;-84
2022/07/18 13:27:40;;;;;;;0.10;0.10;;;;;;;;;;5085885;28;20036;-82
2022/07/18 13:30:07;;;;;;;0.10;0.10;;;;;;;;;;5090056;28;20077;-80
2022/07/18 13:32:33;;;;;;;0.20;0.20;;;;;;;;;;5071155;28;20025;-82
2022/07/18 13:34:59;;;;;;;0.10;0.10;;;;;;;;;;5070409;28;20028;-86
2022/07/18 13:37:25;;;;;;;0.10;0.10;;;;;;;;;;5088425;28;20024;-86
2022/07/18 13:39:51;;;;;;;0.10;0.10;;;;;;;;;;5078595;28;20511;-85
2022/07/18 13:42:17;;;;;;;0.10;0.10;;;;;;;;;;5080128;28;20028;-85
2022/07/18 13:44:47;;;;;;;0.10;0.10;;;;;;;;;;5069843;28;20027;-79
2022/07/18 13:47:14;;;;;;;0.10;0.10;;;;;;;;;;5069931;28;20033;-85
2022/07/18 13:49:40;;;;;;;0.10;0.10;;;;;;;;;;5073987;28;20035;-79
2022/07/18 13:52:06;;;;;;;0.10;0.10;;;;;;;;;;5070477;28;20480;-87
2022/07/18 13:54:32;;;;;;;0.10;0.10;;;;;;;;;;5073135;28;20028;-83
2022/07/18 13:56:58;;;;;;;0.10;0.10;;;;;;;;;;5080294;28;20043;-82
2022/07/18 13:59:24;;;;;;;0.10;0.10;;;;;;;;;;5090555;28;20035;-84
2022/07/18 14:01:50;;;;;;;0.10;0.10;;;;;;;;;;5090712;28;20028;-86
2022/07/18 14:04:18;;;;;;;0.10;0.10;;;;;;;;;;5076407;28;20386;-88
2022/07/18 14:06:44;;;;;;;0.10;0.10;;;;;;;;;;5084316;28;20377;-87
2022/07/18 14:09:10;;;;;;;0.10;0.10;;;;;;;;;;5073848;28;20028;-89
2022/07/18 14:11:36;;;;;;;0.10;0.10;;;;;;;;;;5074359;28;20032;-86
2022/07/18 14:14:03;;;;;;;0.10;0.10;;;;;;;;;;5073878;28;20025;-86
2022/07/18 14:16:29;;;;;;;0.10;0.10;;;;;;;;;;5076827;28;20039;-82
2022/07/18 14:18:55;;;;;;;0.10;0.10;;;;;;;;;;5073911;28;20029;-87
2022/07/18 14:21:21;;;;;;;0.10;0.10;;;;;;;;;;5073439;28;20487;-78
2022/07/18 14:23:47;;;;;;;0.10;0.10;;;;;;;;;;5072343;28;20054;-86
2022/07/18 14:26:13;;;;;;;0.10;0.10;;;;;;;;;;5073309;28;20484;-78
2022/07/18 14:28:39;;;;;;;0.10;0.10;;;;;;;;;;5072188;28;20044;-79
2022/07/18 14:31:05;;;;;;;0.10;0.10;;;;;;;;;;5074745;28;20103;-84
2022/07/18 14:33:32;;;;;;;0.10;0.10;;;;;;;;;;5075442;28;20128;-85
2022/07/18 14:35:58;;;;;;;0.10;0.10;;;;;;;;;;5081585;28;20104;-84
2022/07/18 14:38:24;;;;;;;0.10;0.10;;;;;;;;;;5073094;28;20052;-85
2022/07/18 14:40:50;;;;;;;0.10;0.10;;;;;;;;;;5072930;28;20472;-84
2022/07/18 14:43:16;;;;;;;0.20;0.20;;;;;;;;;;5072964;28;20025;-85
2022/07/18 14:45:42;;;;;;;0.10;0.10;;;;;;;;;;5071999;28;20024;-85